Time;durP1;ratioP1;P1;durP2;ratioP2;P2;SDS_P1;SDS_P2;PMS_P1;PMS_P2;Temp;Humidity;BMP_temperature;BMP_pressure;BME280_temperature;BME280_humidity;BME280_pressure;Samples;Min_cycle;Max_cycle;Signal;HPM_P1;HPM_P2
2021/06/19 00:02:20;;;;;;;7.23;6.63;;;;;;;20.63;88.54;94793.22;5113939;28;20467;-80
2021/06/19 00:04:47;;;;;;;6.77;6.17;;;;;;;20.65;87.94;94793.03;5113951;28;20518;-79
2021/06/19 00:07:14;;;;;;;6.47;5.93;;;;;;;20.69;88.79;94791.59;5113275;28;20966;-79
2021/06/19 00:09:43;;;;;;;10.47;7.67;;;;;;;20.70;88.21;94793.25;5113706;28;20451;-79
2021/06/19 00:12:10;;;;;;;6.73;6.13;;;;;;;20.72;88.30;94793.88;5113480;28;20506;-79
2021/06/19 00:14:37;;;;;;;6.50;5.77;;;;;;;20.73;87.79;94796.34;5111323;28;20576;-78
2021/06/19 00:17:06;;;;;;;7.10;6.40;;;;;;;20.69;87.27;94787.09;5113294;28;20482;-79
2021/06/19 00:19:33;;;;;;;6.33;5.60;;;;;;;20.67;87.21;94785.66;5113286;28;20501;-78
2021/06/19 00:22:00;;;;;;;9.63;6.67;;;;;;;20.64;87.31;94783.38;5113515;28;20447;-79
2021/06/19 00:24:27;;;;;;;8.93;5.77;;;;;;;20.63;87.21;94779.06;5113183;28;20474;-79
2021/06/19 00:26:56;;;;;;;7.40;6.50;;;;;;;20.65;86.99;94787.69;5113263;28;20591;-79
2021/06/19 00:29:23;;;;;;;6.70;6.10;;;;;;;20.66;87.06;94784.00;5113336;28;20447;-79
2021/06/19 00:31:50;;;;;;;8.80;6.67;;;;;;;20.66;86.86;94784.81;5077173;28;20443;-78
2021/06/19 00:34:17;;;;;;;9.80;6.00;;;;;;;20.65;86.55;94787.69;5077372;28;20987;-79
2021/06/19 00:36:44;;;;;;;6.77;6.20;;;;;;;20.64;86.65;94786.03;5077217;28;20516;-79
2021/06/19 00:39:11;;;;;;;6.10;5.27;;;;;;;20.61;87.53;94775.78;5113263;28;20480;-79
2021/06/19 00:41:38;;;;;;;7.10;5.80;;;;;;;20.56;87.12;94779.03;5113072;28;20496;-79
2021/06/19 00:44:16;;;;;;;9.93;6.50;;;;;;;20.55;87.37;94774.72;5112906;28;20998;-79
2021/06/19 00:46:43;;;;;;;10.40;6.10;;;;;;;20.55;87.25;94777.38;5113032;28;20438;-78
2021/06/19 00:49:10;;;;;;;11.10;6.87;;;;;;;20.51;87.34;94780.59;5113004;28;20443;-79
2021/06/19 00:51:37;;;;;;;7.30;6.33;;;;;;;20.53;87.78;94778.56;5114082;28;20469;-79
2021/06/19 00:54:05;;;;;;;14.27;6.87;;;;;;;20.54;88.08;94780.22;5117233;28;20472;-79
2021/06/19 00:56:36;;;;;;;7.53;5.80;;;;;;;20.44;87.04;94775.22;5117250;28;20876;-79
2021/06/19 00:59:04;;;;;;;7.00;6.40;;;;;;;20.45;87.46;94778.72;5117128;28;20447;-79
2021/06/19 01:01:33;;;;;;;9.87;8.90;;;;;;;20.46;87.81;94772.34;5117417;27;20977;-79
2021/06/19 01:04:02;;;;;;;12.23;5.93;;;;;;;20.47;87.32;94769.50;5097907;28;20428;-79
2021/06/19 01:06:29;;;;;;;9.73;6.43;;;;;;;20.47;87.48;94768.69;5117164;28;20519;-79
2021/06/19 01:08:56;;;;;;;8.83;6.40;;;;;;;20.37;87.32;94761.00;5116857;28;20509;-79
2021/06/19 01:11:25;;;;;;;7.30;6.60;;;;;;;20.34;88.40;94759.53;5114747;28;20483;-79
2021/06/19 01:13:52;;;;;;;7.50;5.87;;;;;;;20.31;88.56;94759.94;5117062;28;20508;-79
2021/06/19 01:16:20;;;;;;;10.00;6.43;;;;;;;20.27;88.67;94757.84;5117004;28;20494;-79
2021/06/19 01:18:49;;;;;;;6.50;6.10;;;;;;;20.22;89.30;94761.06;5116876;28;20752;-79
2021/06/19 01:21:17;;;;;;;7.77;7.07;;;;;;;20.25;90.29;94755.38;5116680;28;20451;-79
2021/06/19 01:23:45;;;;;;;8.10;7.20;;;;;;;20.29;90.58;94745.97;5116688;28;20997;-79
2021/06/19 01:26:15;;;;;;;7.00;5.80;;;;;;;20.25;89.81;94750.03;5116381;28;20449;-79
2021/06/19 01:28:42;;;;;;;9.37;7.33;;;;;;;20.29;90.01;94755.81;5116557;28;20815;-79
2021/06/19 01:31:09;;;;;;;10.33;6.67;;;;;;;20.28;90.45;94755.00;5080416;28;20456;-79
2021/06/19 01:33:38;;;;;;;7.33;6.73;;;;;;;20.31;89.79;94751.94;5116578;28;20964;-79
2021/06/19 01:36:06;;;;;;;10.40;7.33;;;;;;;20.30;90.02;94754.78;5114275;28;20993;-79
2021/06/19 01:38:33;;;;;;;10.80;6.60;;;;;;;20.33;90.52;94752.56;5116479;28;20442;-78
2021/06/19 01:41:00;;;;;;;7.33;6.17;;;;;;;20.33;90.13;94752.56;5116277;28;20934;-79
2021/06/19 01:43:28;;;;;;;6.37;5.67;;;;;;;20.35;89.84;94760.38;5116392;28;20453;-79
2021/06/19 01:45:55;;;;;;;8.50;6.50;;;;;;;20.38;90.58;94760.81;5116050;28;20451;-78
2021/06/19 01:48:23;;;;;;;7.00;6.23;;;;;;;20.40;89.08;94769.44;5116325;28;20446;-79
2021/06/19 01:50:50;;;;;;;7.80;7.10;;;;;;;20.36;89.67;94770.00;5116184;28;20447;-79
2021/06/19 01:53:17;;;;;;;10.07;7.67;;;;;;;20.37;89.33;94769.00;5079962;28;20451;-79
2021/06/19 01:55:45;;;;;;;7.60;6.90;;;;;;;20.33;89.70;94765.88;5080232;28;20438;-79
2021/06/19 01:58:12;;;;;;;8.07;7.33;;;;;;;20.33;91.07;94768.56;5116141;28;20450;-79
2021/06/19 02:00:41;;;;;;;8.13;7.30;;;;;;;20.31;91.19;94770.59;5116117;28;20507;-79
2021/06/19 02:03:08;;;;;;;7.27;6.57;;;;;;;20.29;91.00;94772.63;5115751;27;20977;-79
2021/06/19 02:05:36;;;;;;;10.87;6.83;;;;;;;20.30;91.39;94774.28;5096881;28;20805;-79
2021/06/19 02:08:06;;;;;;;7.43;6.73;;;;;;;20.31;91.28;94775.91;5115606;28;21330;-79
2021/06/19 02:10:35;;;;;;;14.10;8.77;;;;;;;20.27;91.10;94785.31;5079706;28;20451;-79
2021/06/19 02:13:03;;;;;;;7.27;6.53;;;;;;;20.23;91.33;94788.53;5079348;28;20472;-79
2021/06/19 02:15:31;;;;;;;10.90;8.30;;;;;;;20.03;92.44;94786.53;5096537;28;20504;-79
2021/06/19 02:18:00;;;;;;;13.30;7.87;;;;;;;19.94;93.98;94781.50;5115637;28;20485;-79
2021/06/19 02:20:28;;;;;;;10.70;7.77;;;;;;;19.46;96.59;94786.50;5115662;28;20523;-79
2021/06/19 02:22:56;;;;;;;9.20;6.27;;;;;;;19.16;98.19;94788.38;5115708;28;20507;-77
2021/06/19 02:25:24;;;;;;;6.93;5.83;;;;;;;19.06;99.92;94807.25;5116183;28;20842;-79
2021/06/19 02:27:52;;;;;;;4.47;4.17;;;;;;;19.02;100.00;94821.94;5115673;28;20447;-79
2021/06/19 02:30:22;;;;;;;5.57;4.10;;;;;;;18.98;100.00;94831.31;5115596;28;20449;-78
2021/06/19 02:32:49;;;;;;;4.80;4.00;;;;;;;18.92;100.00;94826.72;5115618;28;20446;-79
2021/06/19 02:35:19;;;;;;;4.90;3.77;;;;;;;18.41;100.00;94810.56;5115306;28;20471;-79
2021/06/19 02:37:46;;;;;;;5.10;3.97;;;;;;;18.08;100.00;94820.63;5115427;28;20978;-78
2021/06/19 02:40:13;;;;;;;5.57;4.47;;;;;;;18.14;100.00;94821.75;5096470;28;20920;-79
2021/06/19 02:42:41;;;;;;;4.10;3.80;;;;;;;18.01;100.00;94814.41;5115723;28;21172;-79
2021/06/19 02:45:11;;;;;;;5.00;4.30;;;;;;;17.95;100.00;94813.28;5115201;28;20451;-79
2021/06/19 02:47:38;;;;;;;4.87;4.37;;;;;;;18.26;100.00;94804.41;5115071;28;20444;-80
2021/06/19 02:50:07;;;;;;;4.43;4.00;;;;;;;18.47;100.00;94809.84;5095706;28;20462;-79
2021/06/19 02:52:40;;;;;;;4.60;4.30;;;;;;;18.61;100.00;94823.34;5112910;28;20981;-79
2021/06/19 02:55:08;;;;;;;9.10;4.60;;;;;;;18.73;100.00;94809.47;5080861;28;20451;-79
2021/06/19 02:57:35;;;;;;;5.77;5.27;;;;;;;18.89;100.00;94803.16;5114861;28;20586;-79
2021/06/19 03:00:02;;;;;;;5.13;4.63;;;;;;;19.04;100.00;94796.00;5114858;27;20475;-81
2021/06/19 03:02:29;;;;;;;5.63;4.30;;;;;;;19.17;100.00;94790.03;5112706;28;20494;-81
2021/06/19 03:04:56;;;;;;;4.73;4.43;;;;;;;19.28;100.00;94788.72;5112981;28;20447;-80
2021/06/19 03:07:24;;;;;;;5.30;4.87;;;;;;;19.39;100.00;94793.59;5114850;28;20537;-80
2021/06/19 03:09:52;;;;;;;5.50;5.00;;;;;;;19.49;100.00;94788.78;5115166;28;20941;-79
2021/06/19 03:12:19;;;;;;;8.57;4.70;;;;;;;19.58;99.84;94785.03;5114553;28;20466;-78
2021/06/19 03:14:46;;;;;;;6.20;5.70;;;;;;;19.68;98.96;94780.25;5114122;28;21019;-79
2021/06/19 03:17:13;;;;;;;5.33;4.87;;;;;;;19.77;98.53;94775.63;5114520;28;20481;-79
2021/06/19 03:19:40;;;;;;;5.53;5.03;;;;;;;19.85;98.28;94775.47;5114756;27;20500;-79
2021/06/19 03:22:08;;;;;;;4.83;4.43;;;;;;;19.95;97.83;94772.50;5114477;28;20496;-79
2021/06/19 03:24:38;;;;;;;10.43;5.20;;;;;;;20.03;98.42;94783.03;5114642;28;20995;-86
2021/06/19 03:27:08;;;;;;;10.13;5.70;;;;;;;20.20;97.93;94788.91;5095446;28;21026;-83
2021/06/19 03:29:35;;;;;;;4.70;4.30;;;;;;;20.41;97.33;94781.75;5114328;28;20450;-82
2021/06/19 03:32:02;;;;;;;6.30;5.40;;;;;;;20.68;96.08;94781.97;5114148;28;20435;-82
2021/06/19 03:34:29;;;;;;;5.43;4.93;;;;;;;20.89;93.27;94789.91;5114531;28;20229;-79
2021/06/19 03:36:59;;;;;;;4.60;4.20;;;;;;;20.95;90.52;94788.28;5114242;28;20512;-79
2021/06/19 03:39:26;;;;;;;4.50;4.20;;;;;;;20.91;89.93;94787.88;5114030;28;20524;-78
2021/06/19 03:41:53;;;;;;;4.83;4.50;;;;;;;20.90;89.87;94790.72;5114302;28;20448;-78
2021/06/19 03:44:22;;;;;;;5.70;5.20;;;;;;;20.87;90.25;94791.94;5114051;28;20765;-78
2021/06/19 03:46:49;;;;;;;7.33;5.27;;;;;;;20.85;91.00;94788.66;5114345;28;20465;-79
2021/06/19 03:49:17;;;;;;;5.63;5.00;;;;;;;20.85;90.46;94783.31;5111940;28;20476;-82
2021/06/19 03:51:44;;;;;;;9.97;5.73;;;;;;;20.85;91.86;94778.00;5114133;28;20452;-80
2021/06/19 03:54:11;;;;;;;6.97;5.63;;;;;;;20.98;94.25;94772.72;5114137;28;20456;-81
2021/06/19 03:56:38;;;;;;;7.70;5.67;;;;;;;21.31;92.41;94788.94;5114287;28;20978;-80
2021/06/19 03:59:05;;;;;;;6.17;5.67;;;;;;;21.61;90.40;94794.78;5113930;28;20483;-81
2021/06/19 04:01:33;;;;;;;6.00;5.40;;;;;;;21.81;87.45;94800.22;5114131;28;20448;-82
2021/06/19 04:04:00;;;;;;;6.50;6.00;;;;;;;21.95;87.59;94790.38;5113653;28;20440;-80
2021/06/19 04:06:27;;;;;;;10.53;5.27;;;;;;;22.12;86.48;94786.34;5114008;28;20437;-85
2021/06/19 04:08:54;;;;;;;5.70;5.10;;;;;;;22.20;83.30;94796.81;5113878;28;20794;-81
2021/06/19 04:11:21;;;;;;;5.30;4.90;;;;;;;;;;5113772;28;20457;-80
2021/06/19 04:13:48;;;;;;;5.23;4.73;;;;;;;22.50;84.22;94796.44;5114086;28;20463;-85
2021/06/19 04:16:15;;;;;;;7.07;5.10;;;;;;;22.77;82.22;94786.53;5113661;28;20443;-81
2021/06/19 04:18:43;;;;;;;7.20;4.83;;;;;;;23.04;79.84;94785.50;5113680;28;20473;-81
2021/06/19 04:21:11;;;;;;;5.80;5.40;;;;;;;23.11;78.39;94788.16;5113583;28;20440;-84
2021/06/19 04:23:38;;;;;;;5.23;4.73;;;;;;;23.03;78.28;94783.03;5113852;28;20457;-81
2021/06/19 04:26:05;;;;;;;5.20;4.80;;;;;;;22.98;80.51;94781.00;5110669;28;20439;-80
2021/06/19 04:28:32;;;;;;;8.43;5.00;;;;;;;22.95;79.87;94785.94;5113717;28;20526;-80
2021/06/19 04:31:01;;;;;;;5.20;4.80;;;;;;;22.89;80.65;94784.94;5113388;28;20472;-79
2021/06/19 04:33:29;;;;;;;7.00;5.53;;;;;;;22.93;80.36;94782.66;5113375;28;20450;-79
2021/06/19 04:35:58;;;;;;;5.67;5.27;;;;;;;22.84;78.81;94780.22;5113022;28;20481;-79
2021/06/19 04:38:25;;;;;;;5.90;5.40;;;;;;;22.75;78.71;94786.75;5113539;28;20549;-79
2021/06/19 04:40:55;;;;;;;5.27;4.87;;;;;;;22.72;79.10;94792.53;5077715;28;20476;-79
2021/06/19 04:43:28;;;;;;;5.87;5.37;;;;;;;22.66;80.36;94789.84;5113361;28;20835;-79
2021/06/19 04:45:55;;;;;;;7.13;5.77;;;;;;;22.61;80.42;94797.69;5113366;28;20453;-79
2021/06/19 04:48:22;;;;;;;6.70;5.70;;;;;;;22.55;80.56;94799.31;5113200;28;20505;-79
2021/06/19 04:50:49;;;;;;;6.30;5.70;;;;;;;22.47;81.35;94794.16;5113630;28;20503;-79
2021/06/19 04:53:18;;;;;;;6.00;5.30;;;;;;;22.43;81.88;94807.13;5111444;28;20453;-79
2021/06/19 04:55:45;;;;;;;7.00;6.00;;;;;;;22.43;82.29;94806.31;5113204;28;20446;-79
2021/06/19 04:58:12;;;;;;;7.00;5.70;;;;;;;22.37;82.03;94799.13;5113121;28;20489;-79
2021/06/19 05:00:39;;;;;;;5.67;5.20;;;;;;;22.33;81.48;94804.03;5113155;28;20449;-79
2021/06/19 05:03:06;;;;;;;6.57;5.97;;;;;;;22.31;81.37;94806.09;5077122;28;20448;-79
2021/06/19 05:05:34;;;;;;;6.13;5.60;;;;;;;22.32;82.38;94804.25;5113463;28;20449;-79
2021/06/19 05:08:01;;;;;;;6.57;5.70;;;;;;;22.33;82.42;94813.91;5113295;28;20448;-79
2021/06/19 05:10:30;;;;;;;6.43;5.83;;;;;;;22.33;82.78;94813.91;5113001;28;20454;-79
2021/06/19 05:12:57;;;;;;;7.47;6.10;;;;;;;22.29;81.92;94812.69;5113101;28;20845;-78
2021/06/19 05:15:25;;;;;;;11.70;5.63;;;;;;;22.33;82.45;94809.41;5077299;28;20503;-79
2021/06/19 05:17:53;;;;;;;6.30;5.80;;;;;;;22.46;82.59;94814.75;5112924;28;20485;-80
2021/06/19 05:20:20;;;;;;;7.50;5.97;;;;;;;22.69;82.80;94811.66;5112849;28;20917;-79
2021/06/19 05:47:41;;;;;;;6.53;5.93;;;;;;;23.83;75.80;94831.84;5127040;27;181569;-73
2021/06/19 05:50:09;;;;;;;5.77;5.37;;;;;;;24.14;75.49;94837.25;5131051;28;20219;-74
2021/06/19 05:52:36;;;;;;;5.27;4.67;;;;;;;24.18;72.25;94826.91;5131076;28;20444;-75
2021/06/19 05:55:04;;;;;;;5.57;5.07;;;;;;;24.32;72.35;94826.66;5131177;28;20506;-74
2021/06/19 05:57:31;;;;;;;6.17;5.53;;;;;;;24.72;71.91;94829.03;5131236;28;20994;-74
2021/06/19 05:59:58;;;;;;;5.30;4.90;;;;;;;25.26;69.90;94823.00;5131186;28;20445;-74
2021/06/19 06:02:25;;;;;;;5.83;5.40;;;;;;;25.83;69.76;94823.63;5077851;28;20487;-74
2021/06/19 06:04:53;;;;;;;5.60;5.10;;;;;;;26.30;67.23;94829.19;5094868;28;20917;-75
2021/06/19 06:07:20;;;;;;;8.27;5.33;;;;;;;26.71;65.21;94836.50;5130536;28;20499;-75
2021/06/19 06:09:47;;;;;;;6.00;5.50;;;;;;;26.88;62.13;94830.41;5130625;28;20460;-74
2021/06/19 06:12:14;;;;;;;6.23;5.00;;;;;;;27.06;62.42;94827.66;5131035;28;20566;-74
2021/06/19 06:14:42;;;;;;;4.83;4.40;;;;;;;27.09;62.62;94830.72;5130871;28;20442;-74
2021/06/19 06:17:10;;;;;;;6.10;5.60;;;;;;;26.92;63.28;94818.16;5130386;28;20526;-74
2021/06/19 06:19:37;;;;;;;5.87;5.33;;;;;;;26.35;62.14;94817.81;5130659;28;20933;-74
2021/06/19 06:22:06;;;;;;;6.53;6.00;;;;;;;25.97;65.57;94828.84;5130322;28;20495;-74
2021/06/19 06:24:33;;;;;;;6.07;5.57;;;;;;;25.68;66.24;94820.50;5077858;28;21002;-74
2021/06/19 06:27:00;;;;;;;6.10;5.60;;;;;;;25.33;67.20;94812.19;5130510;28;20446;-75
2021/06/19 06:29:27;;;;;;;9.40;5.77;;;;;;;25.05;67.77;94809.16;5130270;28;20489;-74
2021/06/19 06:31:54;;;;;;;7.10;6.33;;;;;;;24.75;69.18;94814.38;5130492;28;20449;-75
2021/06/19 06:34:23;;;;;;;6.70;6.20;;;;;;;24.69;71.08;94814.19;5130079;28;20471;-73
2021/06/19 06:36:50;;;;;;;6.30;5.80;;;;;;;24.67;70.61;94816.28;5130320;28;20487;-74
2021/06/19 06:39:19;;;;;;;6.40;5.90;;;;;;;24.61;69.67;94814.47;5130181;28;20460;-74
2021/06/19 06:41:46;;;;;;;6.30;5.70;;;;;;;24.53;70.34;94816.59;5130426;28;20442;-74
2021/06/19 06:44:13;;;;;;;5.63;5.23;;;;;;;24.49;71.04;94810.03;5130203;28;20495;-74
2021/06/19 06:46:41;;;;;;;7.20;6.23;;;;;;;24.29;71.06;94818.22;5127730;28;20899;-74
2021/06/19 06:49:08;;;;;;;8.43;6.30;;;;;;;24.04;73.75;94821.63;5116129;28;20446;-74
2021/06/19 06:51:37;;;;;;;7.30;6.70;;;;;;;23.86;76.46;94815.34;5116241;28;20502;-74
2021/06/19 06:54:05;;;;;;;7.20;6.60;;;;;;;23.89;78.12;94813.03;5116146;28;20453;-74
2021/06/19 06:56:33;;;;;;;7.10;6.50;;;;;;;23.78;78.02;94809.19;5116349;28;20995;-74
2021/06/19 06:59:00;;;;;;;6.20;5.70;;;;;;;23.88;78.36;94813.25;5116096;28;20445;-75
2021/06/19 07:01:27;;;;;;;7.67;6.90;;;;;;;24.08;77.84;94816.66;5115949;28;20442;-74
2021/06/19 07:03:56;;;;;;;8.43;7.60;;;;;;;24.23;77.01;94809.13;5115913;28;20936;-74
2021/06/19 07:06:23;;;;;;;6.77;6.30;;;;;;;24.18;77.41;94813.50;5115851;28;20539;-74
2021/06/19 07:08:50;;;;;;;7.67;6.87;;;;;;;24.05;77.52;94809.06;5116200;28;20519;-74
2021/06/19 07:11:17;;;;;;;9.90;6.57;;;;;;;23.96;76.81;94805.78;5115748;28;20437;-74
2021/06/19 07:13:45;;;;;;;6.50;5.90;;;;;;;23.81;76.89;94807.13;5115961;28;20846;-75
2021/06/19 07:16:13;;;;;;;8.70;7.13;;;;;;;23.65;77.73;94803.06;5063383;28;20512;-75
2021/06/19 07:18:40;;;;;;;8.60;7.70;;;;;;;23.69;78.41;94799.72;5115810;28;20491;-74
2021/06/19 07:21:07;;;;;;;7.07;6.27;;;;;;;23.77;77.22;94801.38;5115591;28;20449;-75
2021/06/19 07:23:34;;;;;;;7.30;6.70;;;;;;;23.76;75.97;94797.88;5115813;28;20445;-75
2021/06/19 07:26:01;;;;;;;8.33;6.93;;;;;;;23.90;76.99;94797.78;5115697;28;20447;-74
2021/06/19 07:28:28;;;;;;;7.37;6.67;;;;;;;24.08;75.44;94796.03;5115516;28;20804;-74
2021/06/19 07:30:57;;;;;;;7.07;6.43;;;;;;;24.33;75.04;94792.63;5115935;28;20774;-74
2021/06/19 07:33:24;;;;;;;6.63;6.10;;;;;;;24.51;73.91;94791.84;5115211;28;20436;-74
2021/06/19 07:35:54;;;;;;;6.40;5.97;;;;;;;24.72;72.03;94783.41;5115410;28;20534;-75
2021/06/19 07:38:21;;;;;;;7.13;6.27;;;;;;;24.97;69.88;94780.72;5115452;28;20473;-75
2021/06/19 07:40:49;;;;;;;6.87;6.17;;;;;;;25.25;69.06;94778.38;5115155;28;21001;-74
2021/06/19 07:43:16;;;;;;;9.60;6.57;;;;;;;25.63;68.81;94782.69;5115188;28;20450;-74
2021/06/19 07:45:43;;;;;;;6.67;6.17;;;;;;;25.69;67.57;94784.50;5115060;28;20515;-74
2021/06/19 07:48:11;;;;;;;7.23;6.63;;;;;;;25.68;67.04;94788.25;5115320;28;20447;-74
2021/06/19 07:50:40;;;;;;;6.80;6.20;;;;;;;25.84;66.30;94782.25;5063174;28;20500;-75
2021/06/19 07:53:07;;;;;;;6.93;6.33;;;;;;;26.06;65.06;94779.91;5114864;28;20529;-75
2021/06/19 07:55:35;;;;;;;9.73;7.07;;;;;;;26.33;65.69;94777.66;5114915;28;20434;-74
2021/06/19 07:58:02;;;;;;;6.83;6.23;;;;;;;26.55;65.24;94783.31;5062289;28;20427;-75
2021/06/19 08:00:30;;;;;;;6.70;6.10;;;;;;;26.71;64.01;94776.44;5114169;28;20439;-75
2021/06/19 08:02:57;;;;;;;6.10;5.60;;;;;;;26.71;62.73;94773.75;5114595;28;20455;-74
2021/06/19 08:05:26;;;;;;;8.17;6.40;;;;;;;26.69;63.09;94770.47;5114584;28;20470;-74
2021/06/19 08:07:53;;;;;;;7.33;6.60;;;;;;;26.94;63.84;94773.78;5114904;28;20505;-74
2021/06/19 08:10:20;;;;;;;8.17;7.03;;;;;;;27.17;63.74;94771.06;5114925;28;20443;-74
2021/06/19 08:12:47;;;;;;;6.70;6.10;;;;;;;27.48;61.78;94771.75;5114769;28;20482;-74
2021/06/19 08:15:15;;;;;;;6.57;6.07;;;;;;;27.72;61.66;94767.97;5114575;28;20852;-74
2021/06/19 08:17:42;;;;;;;7.13;6.60;;;;;;;27.64;60.58;94771.03;5114609;28;20539;-74
2021/06/19 08:20:11;;;;;;;6.30;5.80;;;;;;;27.64;59.12;94772.91;5114497;28;20779;-75
2021/06/19 08:22:39;;;;;;;7.57;6.60;;;;;;;27.64;59.80;94765.66;5114227;28;20467;-74
2021/06/19 08:25:08;;;;;;;6.57;5.57;;;;;;;27.44;59.65;94762.50;5078544;28;20455;-74
2021/06/19 08:27:35;;;;;;;5.80;5.30;;;;;;;27.49;60.48;94762.63;5061964;28;20443;-74
2021/06/19 08:30:02;;;;;;;7.13;6.40;;;;;;;27.59;60.69;94760.13;5114275;28;20451;-75
2021/06/19 08:32:29;;;;;;;5.97;5.47;;;;;;;27.71;59.53;94758.22;5095380;28;20492;-74
2021/06/19 08:34:56;;;;;;;8.83;6.17;;;;;;;27.87;58.23;94759.38;5114341;28;20914;-74
2021/06/19 08:37:23;;;;;;;9.60;7.40;;;;;;;28.14;59.29;94748.81;5113966;28;20479;-74
2021/06/19 08:39:52;;;;;;;7.13;6.40;;;;;;;28.22;58.65;94751.09;5114250;28;20450;-74
2021/06/19 08:42:19;;;;;;;7.57;5.60;;;;;;;28.22;56.56;94751.09;5114060;28;20503;-74
2021/06/19 08:44:46;;;;;;;6.07;5.57;;;;;;;28.14;57.72;94750.69;5114294;28;20859;-74
2021/06/19 08:47:13;;;;;;;7.57;6.90;;;;;;;27.77;57.81;94749.22;5114211;28;20470;-74
2021/06/19 08:49:41;;;;;;;7.90;7.27;;;;;;;27.32;59.20;94743.66;5113848;28;20501;-74
2021/06/19 08:52:09;;;;;;;9.00;6.30;;;;;;;27.00;60.47;94737.84;5114129;28;20533;-74
2021/06/19 08:54:39;;;;;;;7.60;6.90;;;;;;;26.83;58.97;94739.56;5113775;28;20470;-74
2021/06/19 08:57:09;;;;;;;8.10;7.47;;;;;;;26.69;58.90;94730.09;5114117;28;20494;-75
2021/06/19 08:59:36;;;;;;;8.10;5.70;;;;;;;26.35;57.90;94732.53;5113773;28;20443;-74
2021/06/19 09:02:04;;;;;;;5.20;4.80;;;;;;;26.25;58.70;94730.34;5113664;28;20471;-74
2021/06/19 09:04:31;;;;;;;6.83;6.23;;;;;;;26.23;59.25;94727.06;5113684;28;20504;-74
2021/06/19 09:06:58;;;;;;;6.10;5.70;;;;;;;26.24;59.14;94719.81;5077919;28;20488;-74
2021/06/19 09:09:25;;;;;;;6.40;5.80;;;;;;;25.97;59.98;94721.25;5077901;28;20534;-74
2021/06/19 09:11:53;;;;;;;7.33;6.83;;;;;;;25.92;61.88;94728.16;5061146;28;20431;-74
2021/06/19 09:14:23;;;;;;;10.50;6.40;;;;;;;26.17;62.71;94713.72;5113407;28;20447;-74
2021/06/19 09:17:01;;;;;;;9.23;6.10;;;;;;;26.42;59.38;94713.56;5113343;28;20982;-75
2021/06/19 09:19:30;;;;;;;7.00;6.50;;;;;;;26.39;58.88;94717.56;5113695;28;20451;-74
2021/06/19 09:22:11;;;;;;;7.43;6.23;;;;;;;26.42;60.31;94718.94;5113489;28;20508;-74
2021/06/19 09:24:42;;;;;;;6.90;6.10;;;;;;;26.41;62.06;94712.75;5113554;28;20512;-74
2021/06/19 09:27:29;;;;;;;7.77;6.10;;;;;;;26.34;60.90;94722.00;5113431;28;20450;-74
2021/06/19 09:30:11;;;;;;;7.57;6.87;;;;;;;26.20;60.83;94705.19;5113266;28;20509;-74
2021/06/19 09:32:43;;;;;;;6.83;6.23;;;;;;;26.00;62.17;94712.75;5113262;28;20933;-74
2021/06/19 09:35:12;;;;;;;7.70;6.53;;;;;;;25.97;60.86;94715.88;5113294;28;20465;-74
2021/06/19 09:37:39;;;;;;;8.03;6.70;;;;;;;25.92;61.64;94713.88;5113098;28;20514;-74
2021/06/19 09:40:20;;;;;;;7.13;6.63;;;;;;;26.09;61.72;94703.31;5113300;28;20849;-74
2021/06/19 09:42:48;;;;;;;8.00;7.20;;;;;;;26.34;61.23;94709.34;5113290;28;20507;-74
2021/06/19 09:45:21;;;;;;;7.50;6.73;;;;;;;26.44;61.38;94714.16;5113468;28;20446;-73
2021/06/19 09:47:48;;;;;;;7.60;6.80;;;;;;;26.45;63.42;94705.84;5060537;28;20462;-73
2021/06/19 09:50:18;;;;;;;8.87;8.17;;;;;;;26.41;63.87;94709.25;5113158;28;20469;-74
2021/06/19 09:52:45;;;;;;;7.53;6.93;;;;;;;26.28;63.88;94698.66;5113274;28;20438;-73
2021/06/19 09:55:14;;;;;;;8.10;6.80;;;;;;;26.16;64.15;94704.03;5113041;28;20987;-74
2021/06/19 09:57:42;;;;;;;8.70;7.50;;;;;;;26.00;64.45;94701.97;5112983;28;20479;-74
2021/06/19 10:00:11;;;;;;;7.43;6.73;;;;;;;25.81;65.70;94712.81;5113007;28;20443;-74
2021/06/19 10:02:40;;;;;;;9.63;5.90;;;;;;;25.26;68.83;94717.44;5113082;28;20478;-74
2021/06/19 10:05:08;;;;;;;6.57;5.70;;;;;;;24.44;70.58;94732.06;5113302;28;20446;-74
2021/06/19 10:07:36;;;;;;;8.63;6.80;;;;;;;23.91;72.67;94730.56;5113009;28;20928;-74
2021/06/19 10:10:06;;;;;;;13.03;8.23;;;;;;;23.76;75.82;94730.06;5112961;28;20444;-73
2021/06/19 10:12:35;;;;;;;13.33;7.57;;;;;;;23.18;78.76;94712.16;5060888;28;20440;-73
2021/06/19 10:15:05;;;;;;;18.57;10.60;;;;;;;23.19;82.90;94723.69;5112888;28;20441;-74
2021/06/19 10:17:34;;;;;;;15.00;11.63;;;;;;;22.91;86.91;94725.84;5112860;28;20484;-74
2021/06/19 10:20:03;;;;;;;24.17;11.67;;;;;;;22.84;89.03;94717.81;5112743;28;20474;-74
2021/06/19 10:22:32;;;;;;;15.43;11.20;;;;;;;22.81;90.05;94702.19;5114000;28;20446;-73
2021/06/19 10:25:02;;;;;;;20.10;11.00;;;;;;;22.70;91.95;94706.28;5116624;28;20493;-73
2021/06/19 10:27:30;;;;;;;23.40;11.23;;;;;;;22.69;91.82;94698.47;5116821;28;20518;-73
2021/06/19 10:29:59;;;;;;;16.83;9.70;;;;;;;22.96;93.81;94696.59;5116514;28;20445;-73
2021/06/19 10:32:39;;;;;;;15.27;10.47;;;;;;;23.26;94.50;94696.88;5116829;28;20497;-74
2021/06/19 10:35:11;;;;;;;11.03;7.80;;;;;;;23.54;93.33;94696.53;5064353;28;20969;-73
2021/06/19 10:37:38;;;;;;;11.67;7.97;;;;;;;23.63;89.73;94692.59;5116312;28;20983;-74
2021/06/19 10:40:20;;;;;;;8.97;7.23;;;;;;;23.82;87.16;94688.16;5080542;28;20494;-74
2021/06/19 10:42:48;;;;;;;8.10;7.47;;;;;;;23.99;86.89;94683.91;5116505;28;20448;-73
2021/06/19 10:45:21;;;;;;;8.17;7.27;;;;;;;24.10;87.79;94684.03;5116580;28;20437;-73
2021/06/19 10:48:12;;;;;;;7.80;7.00;;;;;;;24.34;87.40;94668.19;5116354;28;20462;-74
2021/06/19 10:50:43;;;;;;;7.70;6.90;;;;;;;24.49;84.68;94665.97;5013636;28;20450;-73
2021/06/19 10:53:11;;;;;;;6.50;5.83;;;;;;;24.63;82.57;94664.81;5013735;28;20884;-74
2021/06/19 10:55:55;;;;;;;7.53;6.93;;;;;;;24.73;79.79;94661.59;5013688;28;20508;-73
2021/06/19 10:58:28;;;;;;;7.90;7.30;;;;;;;24.91;80.08;94655.44;5013488;28;20538;-74
2021/06/19 11:00:56;;;;;;;11.50;6.90;;;;;;;25.09;81.07;94652.75;4997004;28;20451;-74
2021/06/19 11:03:41;;;;;;;7.80;7.00;;;;;;;25.32;81.08;94655.56;5013544;28;20518;-74
2021/06/19 11:06:24;;;;;;;7.20;6.27;;;;;;;25.57;79.83;94666.19;5013474;28;20498;-74
2021/06/19 11:09:06;;;;;;;7.93;7.17;;;;;;;25.79;78.31;94666.53;5013292;28;20478;-74
2021/06/19 11:11:50;;;;;;;8.80;6.97;;;;;;;25.91;78.15;94656.59;5013330;28;20443;-74
2021/06/19 11:14:53;;;;;;;7.10;6.47;;;;;;;25.86;74.46;94672.63;5013293;28;20501;-74
2021/06/19 11:17:50;;;;;;;6.77;6.27;;;;;;;25.83;76.61;94674.94;4974103;28;20992;-73
2021/06/19 11:20:31;;;;;;;8.00;7.40;;;;;;;25.74;76.93;94671.78;4974093;28;20441;-74
2021/06/19 11:23:03;;;;;;;9.70;7.87;;;;;;;25.64;76.61;94668.75;4974098;28;20453;-74
2021/06/19 11:25:51;;;;;;;8.50;7.60;;;;;;;25.55;78.61;94672.84;4974183;28;20449;-74
2021/06/19 11:28:30;;;;;;;9.20;6.67;;;;;;;25.38;76.76;94675.31;5034962;28;20976;-74
2021/06/19 11:31:19;;;;;;;8.40;7.73;;;;;;;25.19;77.34;94671.84;5052727;28;20445;-74
2021/06/19 11:33:53;;;;;;;9.63;7.60;;;;;;;25.08;77.45;94675.28;5052495;28;20451;-73
2021/06/19 11:36:33;;;;;;;8.03;7.33;;;;;;;25.02;78.42;94668.13;5052762;28;20449;-74
2021/06/19 11:39:09;;;;;;;8.33;7.40;;;;;;;24.97;80.43;94671.47;5052420;28;20488;-74
2021/06/19 11:41:39;;;;;;;9.97;7.50;;;;;;;24.92;80.67;94675.88;4973283;28;20436;-74
2021/06/19 11:44:33;;;;;;;11.23;8.10;;;;;;;24.87;80.93;94683.78;5052450;28;20518;-74
2021/06/19 11:47:07;;;;;;;8.67;7.97;;;;;;;24.77;82.46;94686.13;4954171;28;21028;-74
2021/06/19 11:49:42;;;;;;;9.03;8.23;;;;;;;24.50;80.35;94715.91;4954632;29;20477;-74
2021/06/19 11:52:11;;;;;;;7.03;5.70;;;;;;;23.79;79.02;94734.97;4954287;29;20450;-74
2021/06/19 11:54:44;;;;;;;6.27;5.27;;;;;;;23.13;81.81;94738.75;4993446;28;20456;-74
2021/06/19 11:57:23;;;;;;;7.63;5.77;;;;;;;22.45;86.72;94756.13;5012548;28;20485;-73
2021/06/19 12:00:06;;;;;;;11.50;5.93;;;;;;;21.69;91.22;94739.56;5012666;28;20449;-73
2021/06/19 12:02:33;;;;;;;6.40;5.10;;;;;;;20.94;93.76;94743.97;4963876;28;20448;-73
2021/06/19 12:05:14;;;;;;;11.23;5.60;;;;;;;20.58;97.31;94744.16;5012501;28;20955;-74
2021/06/19 12:07:41;;;;;;;8.00;5.40;;;;;;;20.41;97.99;94746.28;5012266;28;20451;-73